Dansville, New York
Current Conditions -  °F | °C
As of 8:39 AM on Thursday 30 Oct 2014 (Local Time) from KDSV Reporting Station
Overcast Overcast  
Wind Chill: 43°   Ceiling: 3000
Heat Index: 43°   Visibility: 10mi
Dew Point: 37°   Wind: 3mph
Humidity: 80%   Direction: 340°NNW
Pressure: 30.06"   Gusts: NA
Location:  42.56°N, 77.7°W
Report Text: KDSV 301239Z AUTO 34003KT 10SM OVC030 06/03 A3006 RMK AO2 T00610028
Loading
Personal Weather Stations






























Interactive Weather Map New forecast layout! Learn more

10-Day Weather Forecast

Advertisements
Track Severe Weather on mobile